Timeline UpdatesTrip UpdatesNews PostsPvt PostsTravel TipsAdmin PostsConv PostsFollowed PostsChat RequestsBlog PostsPNR Posts

Disclaimer
Search
 
 
Fri Aug 22, 2014 15:21:10 ISTHomeTrainsΣChainsAtlasPNRForumGalleryNewsFAQTripsMembersLoginFeedback
No Recent News for this Train
Other Trains in the News **new
Latest...
.
Fri May 09, 2014 (11:20PM)
⇐ Return Journey: Train# 13106

13105/Sealdah-Ballia Express

Oct 13 2013 (6:38PM)
Change Departure Station:
Change Arrival Station:
Post a Train Travel TipPost a Train Travel Tip **new
Post a Comment/Question/Picture/VideoPost a Comment/Question/Picture/Video
Pantry/Catering
✕ NO Pantry Car
✕ NO Catering
RSA - Rake Sharing
13105/13106/13185/13186 has RSA. rajkamalspj Entry# 729768
Rake/Coach Composition
LOCO-SLR-GEN-GEN-GEN-GEN-B1-A1-S1-S2-S3-S4-S5-S6-S7-S8-S9-GEN-GEN-SLR; http://indiarailinfo.com/blog/post/1011865
Loco
HWH WAP-4/ ASN WAM-4 from SDAH to BJU WDM- 3A from...
Read more...
BJU to BUI
News    PNR    Forum    Time-Table    Availability    Fare Chart    Map    Arr/Dep History    Trips    Gallery    ΣChains    X/O    Timeline    
Travel Time: 3h 53m    7 halts    Distance: 125 km    Avg Speed: 32 km/hr
Type: Mail/Express
Zone: ER/Eastern
Departs @ 02:17 (Avg 1h 31m late)
Platform# ???
SMTWTFS
Hajipur Junction/HJP 
Arrives @ 06:10 (Avg 1h 0m late)
Platform# 2
SMTWTFS
Ballia/BUI 

7 halts. 23 intermediate Stations between Hajipur Junction and Ballia

Hide intermediate Stations  Show Old Time-Table

#CodeStation NameX/OArrivesAvgDepartsAvgHaltPFDay#KmSpeedElevZoneAddress
1SDAHKolkata Sealdah (20)  -13:20+491-554.1478mERPh : 033-23503535 (For North: APC Roy Road) Kolkata 700014, West Bengal
1.1NKGNarkeldanga Coaching Yard  13:21-13:21-  1-553.4 477mERKolkata, West Bengal
1.2KGKKankurgachhi Road Cabin  13:23-13:23-  1-552.2 478mERKolkata, West Bengal
1.3BNXRBidhan Nagar Road (4)  13:24-13:24-  1-550.8 478mERKolkata, West Bengal
1.4DDJDum Dum Junction (5)X  13:28-13:28-  1-547.6 4710mERKolkata - 700028, West Bengal
1.5BLHBelgharia (4)  13:34-13:34-  1-543.1 479mERKolkata, West Bengal
1.6AGPAgarpara (4)  13:37-13:37-  1-540.7 4710mERDist - 24 paraganas ( north ), West Bengal
1.7SEPSodpur (4)  13:40-13:40-  1-538.8 477mERKolkata, West Bengal
1.8KDHKhardaha (4)  13:43-13:43-  1-535.9 4711mERKolkata, West Bengal
1.9TGHTitagarh (4)  13:46-13:46-  1-534.0 4710mERDIST - 24 Paraganas ( North ), West Bengal
1.10BPBarrackpore (5)  13:48-13:48-  1-531.9 4712mERDist - 24 paraganas (N), West Bengal
1.11PTFPalta (4)  13:52-13:52-  1-529.4 4712mERState Highway 1, West Bengal
1.12IPIchhapur (4)  13:54-13:54-  1-527.5 4712mERIchapur, West Bengal
1.13SNRShyamnagar (4)X  13:58-13:58-  1-524.2 4716mERDist - North 24 paraganas, West Bengal
1.14JGDLJagadal (4)  14:02-14:02-  1-521.2 4714mERState Highway 1, West Bengal
1.15KNRKankinara (3)  14:04-14:04-  1-519.4 47 ERState Highway 1, West Bengal
2NHNaihati Junction (5)  14:08+414:11+53m21-516.52615mERdist - North 24 paraganas - 743165, West Bengal
2.1GFAEGarifa (2)  14:18-14:18-  1-513.4 2615mERState Highway 1, West Bengal
2.2HYGHooghly Ghat (2)  14:21-14:21-  1-512.0 2617mERdist - Hooghly, West Bengal
3BDCBandel Junction (7)  14:30+1414:35+145m--1-508.26114mERdist - HOOGHLY, West Bengal
3.1ADSTAdi Saptagram (2)  14:38-14:38-  1-504.8 6116mERHowrah, West Bengal
3.2MUGMagra (3)  14:42-14:42-  1-501.4 6115mERMagra, West Bengal
3.3TLOTalandu (2)  14:45-14:45-  1-497.6 6114mERTalandu - Sultangacha Rd, West Bengal
3.4KHNKhanyan (2)X  14:50-14:50-  1-492.4 6118mERKhanyan, West Bengal
3.5PDAPundooah (3)  14:56-14:56-  1-487.0 6118mERPandua, West Bengal
3.6SLGSimlagarh (2)  15:01-15:01-  1-482.2 6120mERSimlagarh, West Bengal
3.7BCGMBainchigram (2)  15:02-15:02-  1-480.3 6120mERDIST - HOOGHLY - 712135, West Bengal
3.8BOIBainchi (3)  15:05-15:05-  1-477.8 6121mERDIST - HOOGHLY - 712134, West Bengal
3.9DBPDebipur (2)  15:10-15:10-  1-473.0 6122mERDebipur, West Bengal
3.10BGFBagila (2)  15:14-15:14-  1-468.9 6122mERBagila, West Bengal
3.11MYMMemari (4)  15:16-15:16-  1-466.0 6125mERMemari, West Bengal
3.12NMFNimo (2)  15:19-15:19-  1-463.1 6124mERNimo, West Bengal
3.13RSLRRasulpur (2)X  15:22-15:22-  1-460.0 6130mERRasulpur - Kuchut Rd, West Bengal
3.14PLAEPalsit (2)  15:26-15:26-  1-456.4 6124mERPalsit, West Bengal
3.15SKGSaktigarh (7)X  15:29-15:29-  1-452.8 6128mERSaktigarh, West Bengal
3.16GRPGangpur (4)  15:34-15:34-  1-447.8 6129mERGangpur, West Bengal
4BWNBarddhaman Junction (8)O  15:41+615:46+85m--1-440.98134mERDist - Barddhaman, West Bengal
4.1TITTalit (4)X  15:52-15:52-  1-433.3 8137mERDist - Bardhaman, West Bengal
4.2KANKhana Junction (5)  15:56-15:56-  1-427.8 8142mERDist - Bardhaman, West Bengal
4.3INCIIshan Chandi Halt (2)  15:58-15:58-  1-424.5 8143mERDist - Bardhaman, West Bengal
4.4GLIGalsi (4)  16:03-16:03-  1-417.9 8147mERBardhaman, West Bengal
4.5PAJParaj (4)  16:08-16:08-  1-411.5 8152mERNational Highway 2, West Bengal
4.6MNAEMankar (4)X  16:14-16:14-  1-403.2 8165mERMankur, West Bengal
4.7PANPanagarh (4)  16:21-16:21-  1-393.0 8170mERKaksa, West Bengal
4.8RBHRajbandhX  16:27-16:27-  1-385.2 8172mERRajbandh Rail Station Rd, West Bengal
5DGRDurgapur (5)XO  16:33+1416:35+142m--1-377.48071mERDurgapur, West Bengal
5.1DCOPDurgapur Coke Oven Plant  16:37-16:37-  1-374.9 8078mERDurgapur, West Bengal
5.2OYRWaria (4)  16:42-16:42-  1-368.5 8072mERDurgapur, West Bengal
5.3POLPinjrapolX  16:43-16:43-  1-366.6 8080mERDurgapur, West Bengal
5.4EOCAndal East Outer Cabin  16:46-16:46-  1-362.8 8080mERAndal, West Bengal
5.5UDLEAndal East Cabin  16:46-16:46-  1-362.4 8080mERAndal, West Bengal
5.6UDLAndal Junction (6)  16:48-16:48-  1-360.3 8086mERAndal, West Bengal
5.7BQTBakhtarnagarX  16:50-16:50-  1-357.6 8087mERKajora, West Bengal
5.8RNGRaniGanj (4)  16:53-16:53-  1-353.1 8092mERRaniganj, West Bengal
5.9NMCNimchaXO  16:56-16:56-  1-349.2 80106mERRaniganj, West Bengal
5.10KPKKalipahari (4)O  17:03-17:03-  1-340.2 80106mERBardhaman distt, West Bengal
5.11ASNEAsansol East  17:06-17:06-  1-336.6 80110mERAsansol, West Bengal
6ASNAsansol Junction (7)X  17:07+2017:15+208m31-334.965113mERDist - bardhaman, West Bengal
6.1BCQBarachak Junction (4)X  17:20-17:20-  1-329.8 65127mERdist - bardhaman, West Bengal
6.2STNSitarampur Junction (5)X  17:23-17:23-  1-326.1 65139mERG T Rd Before Asansol, West Bengal
6.3SLSSalanpur (2)  17:27-17:27-  1-321.5 65156mERSalanpur Station, West Bengal
6.4RNPRRupnarayanpur (3)  17:34-17:34-  1-314.4 65191mERChittaranjan, West Bengal
7CRJChittaranjan (3)  17:38+3217:40+322m31-309.887182mERMihijam, Jharkhand
7.1BMBodmaX  17:44-17:44-  1-304.6 87179mERChittaranjan, West Bengal
7.2JMTJamtara (2)  17:50-17:50-  1-295.5 87201mERJamtara, Jharkhand
7.3KEEKaseetar  17:56-17:56-  1-287.3 87219mERJamtara, Jharkhand
7.4VDSVidyasagar (2)  18:02-18:02-  1-277.6 87250mERJamtara, Jharkhand
7.5MNCMadankata (2)X  18:08-18:08-  1-268.8 87208mERBarrage on Ajoy River, Jharkhand
7.6JRWJoramowX  18:12-18:12-  1-263.3 87208mERBarrage on Ajoy River, Jharkhand
8MDPMadhupur Junction (4)X  18:19+5118:21+522m--1-253.573254mER06432-224478, Jharkhand
8.1NPZNawapatra  18:26-18:26-  1-247.5 73221mERDeoghar, Jharkhand
8.2MUWMathurapur (2)X  18:31-18:31-  1-241.8 73261mERDeoghar, Jharkhand
8.3SNQSankarpur (2)  18:36-18:36-  1-235.6 73242mERDeoghar, Jharkhand
8.4KBQKumrabad Rohini (2)  18:40-18:40-  1-230.8 73231mERKumrabad Rohi, Jharkhand
9JSMEJasidih Junction (5)  18:45+4718:50+495m--1-224.423271mERJasidih, Jharkhand
9.1TTNTulsitanr (2)X  19:08-19:08-  1-217.4 23272mERDeoghar, Jharkhand
9.2LHBLahabon (3)  19:30-19:30-  1-209.1 23259mERDeoghar, Jharkhand
9.3TLBTalwa Bazar (2)X  19:49-19:49-  1-201.6 23233mERTola Siantanr, Bihar
9.4STLSimultala (2)  19:56-19:56-  1-199.0 23247mERSimultala, Bihar
9.5GHNGhorparanX  20:13-20:13-  1-192.5 23230mERSwami Vivekanand College Rd, Bihar
9.6NRGONarganjo Halt (2)X  20:24-20:24-  1-188.3 23188mERState Highway 18, Bihar
9.7RJLARajla (2)X  20:34-20:34-  1-184.4 23152mERTola Agaria Kalan, Bihar
10JAJJhajha (4)X  20:45+720:55+910m--1-180.369143mECRJhajha, Bihar
10.1DPXDadpur  21:01-21:01-  1-173.1 69116mECRDadpur, Bihar
11GHRGidhaur (2)X  21:05+1621:07+172m--1-168.873106mECRState Highway 18, Bihar
11.1CUXChaura  21:17-21:17-  1-156.9 7379mECRState Highway 18, Bihar
12JMUJamui (3)  21:19+2621:21+302m--1-154.34381mECRState Highway 72, Bihar
12.1KDERKunder HaltX  21:35-21:35-  1-144.2 4366mECRSH 18, Bihar
12.2BFMBhaluiX  21:46-21:46-  1-136.5 4356mECRState Highway 18, Bihar
12.3MNPMananpur (2)  21:49-21:49-  1-133.9 4357mECRState Highway 18, Bihar
12.4BLHRBalahapur Halt  21:52-21:52-  1-132.0 4353mECRSH 18, Bihar
12.5BSQPBansipur  21:53-21:53-  1-131.4 4353mECRKiul, Bihar
12.6LCKLakhochak Halt  21:54-21:54-  1-130.6 4352mECRKiul, Bihar
12.7MHLTMahesh Leta Halt  21:56-21:56-  1-129.4 4352mECRKiul, Bihar
13KIULKiul Junction (5)  21:59+2422:04+255m--1-127.02753mECRDist. Lakhisarai, Bihar
13.1MKBMankatha  22:19-22:19-  1-120.0 2747mECRNational Highway 80, Bihar
13.2BRYABarhiya (3)  22:40-22:40-  1-110.6 2747mECRBarahiya, Bihar
13.3HTZHathidah Junction (2)  23:02-23:02-  1-100.3 2750mECRMusahari, Bihar
13.4RJORajendra Pul (1)  23:09-23:09-  1-97.1 2749mECRSimaria, Bihar
13.5BTPHChakia Thermal Halt  23:13-23:13-  1-95.5 2746mECRNational Highway 31, Bihar
13.6SAEDinkar Gram Simaria (3)  23:16-23:16-  1-94.2 27228mECRBegusarai, Bihar
13.7GHXGarhara  23:23-23:23-  1-90.8 2747mECRSimariya, Bihar
14BJUBarauni Junction (9)X  23:30+4723:55+5525m71-87.76049mECRBegusarai, Bihar
14.1BUJBarauni Flag (2)  23:58-23:58-  1-84.9 6049mECRDistt: Begusarai, Bihar
14.2TGATeghra (3)X  00:02-00:02-  2-80.2 6048mECRBegusarai, Bihar
14.3MPNHMajnupur Nawada  00:07-00:07-  2-75.9 6049mECRNH 28, Bihar
14.4BCABachwara Junction  00:11-00:11-  2-71.3 6049mECRBegusarai, Bihar
14.5FAHFatehaX  00:15-00:15-  2-67.5 6050mECRBachwara, Bihar
14.6SPPASherpur Dhipura  00:17-00:17-  2-65.2 6048mECRNH 28, Bihar
15VPNVidyapatinagar  00:22-00:24-2m--2-60.64650mECRRaod For VIDYAPATI DHAM, Bihar
15.1VPDAVidyapatidham  00:24-00:24-  2-60.5 4650mECRMalkalipur, Bihar
15.2HBPHarpar Bochaha  00:30-00:30-  2-56.0 4649mECRPagra Rd, Bihar
16MOGMohiuddinnagar (1)  00:37+1:2300:38+1:261m--2-50.74854mECRSamastipur, Bihar
16.1RJJNRajajan Halt  00:42-00:42-  2-47.2 4848mECRMadudabad - Patori Road, Bihar
16.2NNNLNandani Lagunia  00:47-00:47-  2-43.4 4847mECRMahnar Bhartendunagar Rd, Bihar
17SPPShahpur Patoree (2)  00:54+1:2600:56+1:302m--2-37.86850mECRSamastipur, Bihar
17.1BDUABasudeopur Chandail Halt  01:00-01:00-  2-33.7 6854mECRSamastipur, Bihar
18MNOMehnar Road  01:03+1:3401:05+1:342m--2-29.95054mECRMehnar Road, Bihar
18.1SDGSahadai Buzurg  01:11-01:11-  2-25.0 5052mECRBuzurg, Bihar
19DESDesari (2)  01:17+1:3701:19+1:392m--2-19.82750mECRVaishali, Bihar
19.1GKHTGram Kharika  01:23-01:23-  2-18.1 2751mECRTajpur Kharka, Bihar
19.2CSRChak Sikandar  01:28-01:28-  2-15.7 2750mECRChak Sikandar Railway Station, Bihar
19.3DHBIDhabauli Halt  01:33-01:33-  2-13.4 2750mECRChak Sikander, Bihar
20AYRNAkshaywat Rai Nagar  01:40+1:3501:42+1:362m--2-10.52252mECRVaishali, Bihar
20.1CKRDChakmakrand  01:53-01:53-  2-6.2 2253mECRSonpur, Bihar
21HJP»Hajipur Junction (3)»X  02:10+1:2202:17+1:317m--20.03355mECR06224-272230, Bihar
22SEESonpur Junction (4)X  02:27+1:4202:32+1:415m--25.55756mECRSaran, Bihar
22.1PMUParmanandpur (2)  02:39-02:39-  212.1 5756mECRNational Highway 19, Bihar
23NYONayagaon (2)X  02:44+1:4702:46+1:472m--216.86553mECRNayagaon Sarai, Bihar
24STLRSitalpur (2)  02:53+1:4902:55+1:492m--224.54257mECRSitalpur, Bihar
25DGADighwara (2)X  03:01+1:5103:03+1:512m--228.62860mECR06158-281240, Bihar
25.1AABHAmbika Bhawani Halt (1)X  03:12-03:12-  232.6 2859mECRNH 19, Bihar
25.2ATNRAwatarnagar (2)  03:16-03:16-  234.5 2856mECRNH 19, Bihar
25.3PPDAPanchpatia Deoria Halt (1)  03:20-03:20-  236.7 2857mECRNH 19, Bihar
25.4BAGLBaragopal (2)  03:26-03:26-  239.5 2857mECRSH 46, Bihar
25.5DRIDumri Juara (2)O  03:35-03:35-  243.6 2857mECRSaran, Bihar
25.6GJHGoldinganj (2)X  03:46-03:46-  248.3 2858mECRChapra Patna Highway, Bihar
25.7CIChhapra Kacheri (3)X  04:05-04:05-  257.4 2857mNERChhapra, Bihar
26CPRChhapra Junction (6)  04:10+1:3504:30+1:3920m--259.66758mNERDistt: Saran, Bihar
26.1GTSTGautamsthan  04:38-04:38-  268.3 6761mNERRevelganjghat, Bihar
26.2RVGRevelganj Ghat Halt (1)  04:39-04:39-  269.6 6761mNERChhapra, Bihar
26.3MHTManjhi  04:45-04:45-  276.2 6761mNERManjhi, Bihar
26.4BKLABakulha  04:50-04:50-  281.7 6756mNERBakulha, Uttar Pradesh
27SIPSuraimanpur  04:56+1:5204:58+1:532m--288.74660mNERBallia, Uttar Pradesh
27.1DCPDal Chapra  05:06-05:06-  294.5 4661mNERDal Chapra, Bihar
27.2ROIReoti  05:13-05:13-  299.8 4664mNERBallia district, Uttar Pradesh
28STWSahatwar  05:23+1:4305:25+1:432m--2107.82363mNERBallia district, Uttar Pradesh
28.1CATAChhata Aschaura  05:38-05:38-  2112.9 2361mNERGirija Bhavan, Bihar
28.2BCDBansdih Road  05:47-05:47-  2116.4 2362mNERBansdih Road/, Uttar Pradesh
29BUI•Ballia (3)•  06:10+1:00-22125.1-62mNERBallia, Uttar Pradesh
Scroll to Top
Scroll to Bottom